WetterOnline ( https://www.wetteronline.ch )

Wetter aktuell Wismar

Aktuelles Wetter: Pelzerhaken/Neustadt i.H. (2m)

6-stündlich | Neueste Meldungen
Ortszeit Temperatur Wetter
Mo, 20.01. 1:00 0.2° C wolkig
So, 19.01. 19:00 1.8° C wolkenlos
So, 19.01. 13:00 6.6° C wolkenlos
So, 19.01. 7:00 1.9° C wolkenlos
So, 19.01. 1:00 2.9° C wolkenlos
Sa, 18.01. 19:00 4.8° C bewölkt
Sa, 18.01. 13:00 5.6° C bedeckt
Sa, 18.01. 7:00 5.9° C bewölkt
Ortszeit Temperatur Wetter
Mo, 20.01. 1:30 -1.4° C wolkig
Mo, 20.01. 1:20 -1.4° C wolkig
Mo, 20.01. 1:10 -1.5° C wolkig
Mo, 20.01. 1:00 0.2° C wolkig
Mo, 20.01. 0:40 1.1° C leicht bewölkt
Mo, 20.01. 0:30 0.1° C fast wolkenlos
Mo, 20.01. 0:00 1.2° C wolkenlos
So, 19.01. 23:30 0.6° C wolkenlos
So, 19.01. 23:00 1.0° C wolkenlos
So, 19.01. 22:30 0.9° C wolkenlos
So, 19.01. 22:00 1.3° C wolkenlos
Ortszeit Relative Feuchte Sichtweite
Mo, 20.01. 1:00 97% 11 km
So, 19.01. 19:00 94% 16 km
So, 19.01. 13:00 73% 19 km
So, 19.01. 7:00 95% 21 km
So, 19.01. 1:00 95% 22 km
Sa, 18.01. 19:00 89% 40 km
Sa, 18.01. 13:00 81% 30 km
Sa, 18.01. 7:00 79% 35 km
Ortszeit Relative Feuchte Sichtweite
Mo, 20.01. 1:30 98% 10 km
Mo, 20.01. 1:20 98% -
Mo, 20.01. 1:10 98% -
Mo, 20.01. 1:00 97% 11 km
Mo, 20.01. 0:40 96% -
Mo, 20.01. 0:30 96% 14 km
Mo, 20.01. 0:00 92% 18 km
So, 19.01. 23:30 92% 17 km
So, 19.01. 23:00 91% 19 km
So, 19.01. 22:30 91% 20 km
So, 19.01. 22:00 90% 19 km
Ortszeit Niederschlagsmenge Niederschlagsart
Mo, 20.01. 1:00 0.0 l/m2 in 6 Std. -
So, 19.01. 19:00 0.0 l/m2 in 12 Std. -
So, 19.01. 13:00 0.0 l/m2 in 6 Std. -
So, 19.01. 7:00 0.1 l/m2 in 12 Std. -
So, 19.01. 1:00 0.1 l/m2 in 6 Std. Regen
Sa, 18.01. 19:00 0.1 l/m2 in 12 Std. Regen
Sa, 18.01. 13:00 0.0 l/m2 in 6 Std. -
Sa, 18.01. 7:00 0.1 l/m2 in 12 Std. Regen
Ortszeit Niederschlagsmenge Niederschlagsart
Mo, 20.01. 1:30 0.0 l/m2 in 1 Std. -
Mo, 20.01. 1:20 keine Meldung -
Mo, 20.01. 1:10 keine Meldung -
Mo, 20.01. 1:00 0.0 l/m2 in 1 Std. -
Mo, 20.01. 0:40 keine Meldung -
Mo, 20.01. 0:30 0.0 l/m2 in 1 Std. -
Mo, 20.01. 0:00 0.0 l/m2 in 1 Std. -
So, 19.01. 23:30 0.0 l/m2 in 1 Std. -
So, 19.01. 23:00 0.0 l/m2 in 1 Std. -
So, 19.01. 22:30 0.0 l/m2 in 1 Std. -
So, 19.01. 22:00 0.0 l/m2 in 1 Std. -
Ortszeit Stärke Spitze Richtung
km/h Bft. km/h Grad Sektor
Mo, 20.01. 1:00 6 1 15 250° W
So, 19.01. 19:00 9 2 24 290° W
So, 19.01. 13:00 13 3 22 320° NW
So, 19.01. 7:00 6 1 22 270° W
So, 19.01. 1:00 7 2 32 270° W
Sa, 18.01. 19:00 20 4 52 240° SW
Sa, 18.01. 13:00 29 5 61 240° SW
Sa, 18.01. 7:00 28 4 56 240° SW
Ortszeit Stärke Spitze Richtung
km/h Bft. km/h Grad Sektor
Mo, 20.01. 1:30 4 1 7 260° W
Mo, 20.01. 1:20 4 1 - 260° W
Mo, 20.01. 1:10 4 1 - 270° W
Mo, 20.01. 1:00 6 1 13 250° W
Mo, 20.01. 0:40 6 1 - 240° SW
Mo, 20.01. 0:30 7 2 14 280° W
Mo, 20.01. 0:00 7 2 11 270° W
So, 19.01. 23:30 7 2 11 280° W
So, 19.01. 23:00 9 2 15 270° W
So, 19.01. 22:30 11 2 14 290° W
So, 19.01. 22:00 9 2 15 280° W
Ortszeit Untergrenze Bedeckung Gattung
total tief tief mittel hoch
Mo, 20.01. 1:00 7800 m 8/8 0/8 - - -
So, 19.01. 19:00 - 0/8 0/8 - - -
So, 19.01. 13:00 - 0/8 0/8 - - -
So, 19.01. 7:00 - 0/8 0/8 - - -
So, 19.01. 1:00 - 0/8 0/8 - - -
Sa, 18.01. 19:00 630 m 8/8 7/8 - - -
Sa, 18.01. 13:00 510 m 8/8 8/8 - - -
Sa, 18.01. 7:00 750 m 8/8 7/8 - - -
Ortszeit Bedeckungsgrad in Achtel und Wolkenuntergrenze
Mo, 20.01. 1:30 5(7800m) 8(8700m) 8(9000m)
Mo, 20.01. 1:20 5(7800m) 8(8700m) 8(9000m)
Mo, 20.01. 1:10 6(7800m) 8(8700m) 8(9000m)
Mo, 20.01. 1:00 6(7800m) 8(9000m) 8(9000m)
Mo, 20.01. 0:40 4(8100m) 6(9000m) 6(9000m)
Mo, 20.01. 0:30 1(9000m) 4(9000m)
Mo, 20.01. 0:00 keine Wolken
So, 19.01. 23:30 keine Wolken
So, 19.01. 23:00 keine Wolken
So, 19.01. 22:30 keine Wolken
So, 19.01. 22:00 keine Wolken
Ortszeit Luftdruck NN (hPa) Tendenz (hPa in 3 Std.)
Mo, 20.01. 1:00 1043 + 1,5
So, 19.01. 19:00 1039 + 2,7
So, 19.01. 13:00 1034 + 2,2
So, 19.01. 7:00 1029 + 2,1
So, 19.01. 1:00 1025 + 1,5
Sa, 18.01. 19:00 1022 + 1,8
Sa, 18.01. 13:00 1019 + 0,9
Sa, 18.01. 7:00 1017 + 1,6
Ortszeit Luftdruck NN (hPa) Tendenz (hPa in 3 Std.)
Mo, 20.01. 1:30 1043 + 1,0
Mo, 20.01. 1:20 1043 keine Meldung
Mo, 20.01. 1:10 1043 keine Meldung
Mo, 20.01. 1:00 1043 + 1,5
Mo, 20.01. 0:40 1043 keine Meldung
Mo, 20.01. 0:30 1043 + 1,8
Mo, 20.01. 0:00 1042 + 1,6
So, 19.01. 23:30 1042 + 1,8
So, 19.01. 23:00 1042 + 1,8
So, 19.01. 22:30 1042 + 2,3
So, 19.01. 22:00 1041 + 2,3
Ortszeit Schneehöhe (cm)
Mo, 20.01. 1:00 0
So, 19.01. 19:00 0
So, 19.01. 13:00 0
So, 19.01. 7:00 0
So, 19.01. 1:00 0
Sa, 18.01. 19:00 0
Sa, 18.01. 13:00 0
Sa, 18.01. 7:00 0
Ortszeit Schneehöhe (cm)
Mo, 20.01. 1:30 0
Mo, 20.01. 1:20 0
Mo, 20.01. 1:10 0
Mo, 20.01. 1:00 0
Mo, 20.01. 0:40 0
Mo, 20.01. 0:30 0
Mo, 20.01. 0:00 0
So, 19.01. 23:30 0
So, 19.01. 23:00 0
So, 19.01. 22:30 0
So, 19.01. 22:00 0
Link zu dieser Seite / Seite empfehlen

Das Wetter in ...